Time;durP1;ratioP1;P1;durP2;ratioP2;P2;SDS_P1;SDS_P2;PMS_P1;PMS_P2;Temp;Humidity;BMP_temperature;BMP_pressure;BME280_temperature;BME280_humidity;BME280_pressure;Samples;Min_cycle;Max_cycle;Signal;HPM_P1;HPM_P2
2022/04/22 00:00:38;;;;;;;11.00;8.63;;;;;;;7.56;76.11;95217.59;4971840;28;20614;-69
2022/04/22 00:03:07;;;;;;;13.10;8.38;;;;;;;7.51;75.80;95209.78;4960407;28;20043;-66
2022/04/22 00:05:34;;;;;;;13.13;8.50;;;;;;;7.49;76.23;95223.81;4960679;28;20055;-67
2022/04/22 00:08:00;;;;;;;10.95;8.00;;;;;;;7.47;76.56;95209.75;4962153;28;20097;-69
2022/04/22 00:10:25;;;;;;;16.08;9.10;;;;;;;7.41;76.88;95201.19;4977775;23;20055;-65
2022/04/22 00:12:51;;;;;;;13.00;7.85;;;;;;;7.40;77.49;95194.19;4977960;28;20173;-66
2022/04/22 00:15:16;;;;;;;13.52;8.57;;;;;;;7.36;76.98;95200.75;4958391;28;20047;-65
2022/04/22 00:17:42;;;;;;;13.50;8.25;;;;;;;7.35;77.49;95193.78;4962269;28;20133;-65
2022/04/22 00:20:11;;;;;;;13.80;8.38;;;;;;;7.30;77.58;95183.25;4954339;28;20138;-65
2022/04/22 00:22:37;;;;;;;11.25;7.80;;;;;;;7.30;78.05;95191.41;4961481;28;20038;-66
2022/04/22 00:25:03;;;;;;;11.73;8.93;;;;;;;7.28;77.64;95176.22;4985394;28;20462;-66
2022/04/22 00:27:29;;;;;;;12.95;8.55;;;;;;;7.25;78.04;95176.22;4991447;28;20065;-67
2022/04/22 00:29:54;;;;;;;11.95;8.00;;;;;;;7.31;78.21;95179.34;4990416;28;20045;-66
2022/04/22 00:32:19;;;;;;;10.82;8.30;;;;;;;7.21;77.96;95178.91;4992473;28;20446;-66
2022/04/22 00:34:45;;;;;;;10.48;7.63;;;;;;;7.16;78.68;95167.59;4992594;28;20153;-65
2022/04/22 00:37:10;;;;;;;11.32;7.88;;;;;;;7.11;79.08;95168.75;4992243;28;20568;-66
2022/04/22 00:39:36;;;;;;;10.88;7.70;;;;;;;7.03;79.87;95165.22;4995044;28;20034;-64
2022/04/22 00:42:10;;;;;;;14.40;8.27;;;;;;;7.03;79.47;95167.16;5012341;28;20038;-65
2022/04/22 00:44:36;;;;;;;11.05;7.72;;;;;;;6.93;80.58;95173.31;5013115;28;20022;-64
2022/04/22 00:47:01;;;;;;;12.27;9.00;;;;;;;6.95;80.39;95160.91;4999165;28;20038;-66
2022/04/22 00:49:27;;;;;;;10.73;7.53;;;;;;;6.98;80.06;95165.56;4991503;28;20093;-67
2022/04/22 00:51:52;;;;;;;11.80;8.02;;;;;;;6.89;80.80;95160.44;4992477;28;20092;-66
2022/04/22 00:54:18;;;;;;;12.68;8.57;;;;;;;6.96;80.30;95142.63;4991949;28;20034;-66
2022/04/22 00:56:43;;;;;;;9.82;7.53;;;;;;;6.92;81.14;95161.66;4991287;28;20069;-65
2022/04/22 00:59:10;;;;;;;10.95;7.63;;;;;;;6.84;81.22;95152.69;4975377;28;20030;-66
2022/04/22 01:01:35;;;;;;;11.50;7.60;;;;;;;6.79;81.67;95154.94;4978333;28;20447;-66
2022/04/22 01:09:49;;;;;;;11.43;8.07;;;;;;;6.74;82.37;95147.94;4996327;28;20547;-66
2022/04/22 01:12:15;;;;;;;10.68;8.30;;;;;;;6.77;82.28;95143.66;4996895;28;20033;-68
2022/04/22 01:14:44;;;;;;;12.57;8.60;;;;;;;6.73;82.91;95143.66;4996552;28;20034;-67
2022/04/22 01:17:10;;;;;;;10.82;8.00;;;;;;;6.68;83.04;95147.53;5019381;28;20041;-65
2022/04/22 01:19:36;;;;;;;14.30;8.50;;;;;;;6.73;82.71;95142.88;5017537;28;20026;-64
2022/04/22 01:22:02;;;;;;;10.80;7.72;;;;;;;6.66;83.21;95140.88;5013794;28;20094;-64
2022/04/22 01:24:28;;;;;;;11.35;7.97;;;;;;;6.65;83.07;95136.63;4999499;28;20038;-65
2022/04/22 01:26:55;;;;;;;11.00;7.78;;;;;;;6.61;83.51;95139.31;4995365;28;20097;-66
2022/04/22 01:29:21;;;;;;;11.55;8.73;;;;;;;6.61;83.99;95130.34;4995059;28;20052;-66
2022/04/22 01:31:48;;;;;;;11.52;8.23;;;;;;;6.54;84.08;95133.81;4994818;28;20117;-66
2022/04/22 01:34:13;;;;;;;11.45;7.93;;;;;;;6.46;84.92;95135.72;4995022;28;20034;-66
2022/04/22 01:36:39;;;;;;;13.35;8.13;;;;;;;6.45;84.86;95130.66;4994021;28;20030;-65
2022/04/22 01:39:05;;;;;;;11.93;8.75;;;;;;;6.51;84.46;95134.56;4994511;28;20034;-66
2022/04/22 01:41:30;;;;;;;13.18;8.52;;;;;;;6.37;85.73;95120.88;4994982;28;20114;-66
2022/04/22 01:43:57;;;;;;;12.65;8.75;;;;;;;6.34;86.25;95132.50;4993457;28;20475;-65
2022/04/22 01:46:23;;;;;;;15.52;9.27;;;;;;;6.35;86.26;95123.97;4976590;28;20031;-66
2022/04/22 01:48:48;;;;;;;14.20;9.60;;;;;;;6.31;86.00;95121.22;4994754;28;20030;-66
2022/04/22 01:51:14;;;;;;;11.35;9.10;;;;;;;6.33;86.08;95129.00;4977278;28;20068;-66
2022/04/22 01:53:39;;;;;;;12.82;9.35;;;;;;;6.21;87.48;95126.56;4994660;28;20041;-66
2022/04/22 01:56:05;;;;;;;13.25;8.50;;;;;;;6.18;87.81;95124.63;4994053;28;20037;-66
2022/04/22 01:58:30;;;;;;;11.23;8.20;;;;;;;6.13;88.02;95121.09;4995182;28;20049;-67
2022/04/22 02:00:56;;;;;;;11.48;8.63;;;;;;;6.09;88.83;95125.72;4994476;28;20073;-66
2022/04/22 02:03:21;;;;;;;11.27;8.23;;;;;;;6.03;89.13;95121.00;4994774;28;20518;-66
2022/04/22 02:05:47;;;;;;;13.80;9.10;;;;;;;6.00;89.13;95133.41;4976691;28;20117;-65
2022/04/22 02:08:12;;;;;;;12.93;8.63;;;;;;;5.94;90.09;95132.94;4994544;28;20061;-65
2022/04/22 02:10:40;;;;;;;13.05;8.77;;;;;;;5.96;89.95;95131.81;4992163;28;20419;-66
2022/04/22 02:13:07;;;;;;;11.25;8.32;;;;;;;5.94;90.33;95134.88;4976474;28;20038;-66
2022/04/22 02:15:32;;;;;;;11.57;8.27;;;;;;;5.91;90.69;95139.13;4994262;28;20027;-66
2022/04/22 02:17:57;;;;;;;13.43;8.77;;;;;;;5.88;91.12;95139.84;4994268;28;20034;-65
2022/04/22 02:20:23;;;;;;;12.63;8.80;;;;;;;5.81;91.54;95136.31;4994295;28;20038;-64
2022/04/22 02:22:48;;;;;;;14.13;9.60;;;;;;;5.91;91.32;95128.25;4977105;28;20034;-65
2022/04/22 02:25:14;;;;;;;13.23;8.88;;;;;;;5.86;91.32;95125.88;4994398;28;20030;-66
2022/04/22 02:30:23;;;;;;;13.80;9.15;;;;;;;5.70;92.92;95123.38;4994204;28;20030;-66
2022/04/22 02:32:50;;;;;;;14.20;9.60;;;;;;;5.71;92.82;95122.25;4994169;28;20045;-65
2022/04/22 02:35:16;;;;;;;13.55;8.82;;;;;;;5.70;93.01;95109.81;4993757;28;20518;-63
2022/04/22 02:37:41;;;;;;;12.65;9.30;;;;;;;5.67;93.60;95116.00;4993379;28;20070;-66
2022/04/22 02:40:08;;;;;;;14.35;9.32;;;;;;;5.62;94.12;95113.63;4993857;28;20065;-66
2022/04/22 02:45:29;;;;;;;13.80;9.75;;;;;;;5.71;93.01;95111.38;4989765;28;20077;-67
2022/04/22 02:47:56;;;;;;;16.60;9.02;;;;;;;5.64;93.61;95108.59;4975887;28;20046;-63
2022/04/22 02:50:22;;;;;;;13.40;8.95;;;;;;;5.67;93.60;95094.28;4983200;28;20030;-66
2022/04/22 02:52:47;;;;;;;13.88;9.52;;;;;;;5.66;93.60;95105.50;4994045;28;20068;-64
2022/04/22 02:55:13;;;;;;;15.48;9.02;;;;;;;5.61;94.33;95098.47;4960932;28;20547;-64
2022/04/22 02:57:38;;;;;;;14.68;9.52;;;;;;;5.66;93.80;95100.84;4975240;28;20060;-68
2022/04/22 03:00:04;;;;;;;13.07;8.93;;;;;;;5.61;94.33;95089.56;4994144;28;20038;-64
2022/04/22 03:02:29;;;;;;;14.65;10.13;;;;;;;5.61;94.14;95084.13;5003729;28;20041;-63
2022/04/22 03:04:55;;;;;;;16.10;9.18;;;;;;;5.54;94.77;95077.44;4986759;28;20040;-62
2022/04/22 03:07:20;;;;;;;18.15;10.82;;;;;;;5.52;95.22;95087.13;4984699;28;20045;-63
2022/04/22 03:09:46;;;;;;;14.10;9.70;;;;;;;5.52;95.12;95098.00;5011832;28;20100;-63
2022/04/22 03:12:15;;;;;;;16.27;10.07;;;;;;;5.47;95.70;95095.63;5008940;28;20030;-64
2022/04/22 03:14:41;;;;;;;12.98;9.48;;;;;;;5.48;95.79;95097.97;4995418;28;20085;-64
2022/04/22 03:17:06;;;;;;;14.15;9.82;;;;;;;5.42;96.42;95098.66;4993054;28;20030;-65
2022/04/22 03:19:32;;;;;;;14.48;9.60;;;;;;;5.40;96.59;95101.75;4992132;28;20043;-63
2022/04/22 03:21:58;;;;;;;15.50;9.90;;;;;;;5.41;96.27;95094.41;4992797;28;20034;-64
2022/04/22 03:24:23;;;;;;;13.95;9.73;;;;;;;5.35;96.87;95088.53;4994085;28;20034;-65
2022/04/22 03:26:49;;;;;;;14.93;9.98;;;;;;;5.39;96.42;95088.56;4993283;28;20052;-65
2022/04/22 03:29:14;;;;;;;19.80;10.88;;;;;;;5.32;97.19;95094.69;4993158;28;20069;-65
2022/04/22 03:31:40;;;;;;;14.07;9.93;;;;;;;5.33;97.24;95096.25;4993671;28;20041;-64
2022/04/22 03:34:05;;;;;;;14.82;9.93;;;;;;;5.35;96.92;95092.00;4991327;28;20081;-65
2022/04/22 03:36:30;;;;;;;14.82;9.93;;;;;;;5.39;97.04;95094.00;4992668;28;20112;-65
2022/04/22 03:38:56;;;;;;;18.83;11.63;;;;;;;5.31;97.45;95090.41;4992782;28;20036;-65
2022/04/22 03:41:21;;;;;;;16.30;11.13;;;;;;;5.37;96.77;95091.66;4976270;28;20041;-66
2022/04/22 03:43:47;;;;;;;16.40;10.68;;;;;;;5.33;97.20;95091.59;4993665;28;20060;-65
2022/04/22 03:46:12;;;;;;;14.88;10.60;;;;;;;5.26;98.09;95096.19;4993119;28;20097;-65
2022/04/22 03:48:38;;;;;;;19.73;11.00;;;;;;;5.21;98.61;95099.22;4976841;28;20468;-64
2022/04/22 03:51:03;;;;;;;16.60;10.75;;;;;;;5.13;98.82;95091.00;5014247;28;20057;-64
2022/04/22 03:53:29;;;;;;;15.98;10.95;;;;;;;5.10;99.53;95089.03;5012724;28;20042;-64
2022/04/22 03:55:54;;;;;;;16.40;10.73;;;;;;;5.13;99.82;95084.78;5009718;28;20091;-65
2022/04/22 03:58:20;;;;;;;21.45;12.95;;;;;;;5.04;100.00;95079.66;5003641;28;20030;-65
2022/04/22 04:00:51;;;;;;;15.60;10.50;;;;;;;5.00;100.00;95081.53;4993872;28;20072;-64
2022/04/22 04:03:19;;;;;;;20.50;11.35;;;;;;;5.02;100.00;95081.16;4974116;28;20034;-64
2022/04/22 04:05:49;;;;;;;17.83;11.13;;;;;;;5.04;100.00;95084.28;4992225;28;20026;-65
2022/04/22 04:08:19;;;;;;;18.27;11.27;;;;;;;4.96;100.00;95094.28;4976086;28;20476;-64
2022/04/22 04:16:28;;;;;;;18.38;11.32;;;;;;;4.93;100.00;95090.38;4972618;28;20102;-65
2022/04/22 04:23:14;;;;;;;17.92;11.82;;;;;;;4.86;100.00;95095.72;4988913;28;20065;-64
2022/04/22 04:24:22;;;;;;;16.98;11.07;;;;;;;4.87;100.00;95093.78;5006765;28;20061;-65
2022/04/22 04:26:48;;;;;;;19.38;12.07;;;;;;;4.88;100.00;95107.00;4995308;28;20030;-64
2022/04/22 04:29:13;;;;;;;18.65;12.10;;;;;;;4.85;100.00;95098.81;4994299;28;20069;-63
2022/04/22 04:31:39;;;;;;;16.58;11.27;;;;;;;4.88;100.00;95103.47;4992700;28;20038;-65
2022/04/22 04:34:04;;;;;;;18.30;12.13;;;;;;;4.90;100.00;95106.63;4993096;28;20038;-65
2022/04/22 04:36:31;;;;;;;17.90;11.02;;;;;;;4.85;100.00;95110.44;4997256;28;20034;-64
2022/04/22 04:38:57;;;;;;;21.52;12.10;;;;;;;4.83;100.00;95101.09;4980658;28;20097;-62
2022/04/22 04:41:23;;;;;;;19.02;12.55;;;;;;;4.94;100.00;95102.78;4997538;28;20485;-67
2022/04/22 04:43:48;;;;;;;19.17;12.30;;;;;;;5.02;100.00;95100.94;4998082;28;20046;-65
2022/04/22 04:46:14;;;;;;;18.40;11.45;;;;;;;4.99;100.00;95096.28;4995748;28;20057;-64
2022/04/22 04:48:39;;;;;;;18.73;12.05;;;;;;;5.00;100.00;95097.81;4996823;28;20370;-64
2022/04/22 04:51:06;;;;;;;17.70;12.07;;;;;;;4.92;100.00;95102.38;4998036;28;20034;-65
2022/04/22 04:53:32;;;;;;;18.95;11.80;;;;;;;4.94;100.00;95107.44;4998076;28;20073;-65
2022/04/22 04:55:58;;;;;;;17.70;11.63;;;;;;;4.89;100.00;95097.69;4977580;28;20030;-63
2022/04/22 04:58:23;;;;;;;18.38;12.80;;;;;;;4.88;100.00;95103.47;4991403;28;20081;-64
2022/04/22 05:00:49;;;;;;;17.60;11.82;;;;;;;4.92;100.00;95096.19;4991286;28;20050;-64
2022/04/22 05:03:15;;;;;;;18.17;12.57;;;;;;;4.94;100.00;95102.78;4997402;28;20542;-66
2022/04/22 05:05:41;;;;;;;18.33;12.00;;;;;;;5.00;100.00;95099.75;4995827;28;20076;-65
2022/04/22 05:08:07;;;;;;;18.20;11.77;;;;;;;5.02;100.00;95111.03;4980703;28;20034;-65
2022/04/22 05:10:34;;;;;;;22.42;12.52;;;;;;;5.07;100.00;95105.28;4997169;28;20034;-65
2022/04/22 05:13:00;;;;;;;17.25;12.05;;;;;;;5.10;100.00;95101.81;4985366;28;20034;-66
2022/04/22 05:15:26;;;;;;;19.08;12.68;;;;;;;5.12;100.00;95102.22;5010204;28;20365;-63
2022/04/22 05:17:54;;;;;;;21.70;13.48;;;;;;;5.20;100.00;95097.66;5003182;28;20037;-67
2022/04/22 05:20:26;;;;;;;20.77;13.68;;;;;;;5.23;100.00;95108.56;4995058;28;20219;-66
2022/04/22 05:22:53;;;;;;;18.15;12.05;;;;;;;5.31;100.00;95106.69;4997293;28;20065;-66
2022/04/22 05:25:20;;;;;;;18.92;12.27;;;;;;;5.40;99.80;95106.41;4997248;28;20093;-67
2022/04/22 05:27:45;;;;;;;21.33;12.73;;;;;;;5.41;100.00;95110.69;4980221;28;20475;-67
2022/04/22 05:32:58;;;;;;;19.05;12.32;;;;;;;5.48;99.87;95119.69;4997304;28;20054;-64
2022/04/22 05:35:27;;;;;;;19.77;13.77;;;;;;;5.42;100.00;95120.38;4994283;28;20045;-64
2022/04/22 05:37:57;;;;;;;17.88;11.77;;;;;;;5.43;100.00;95113.81;4989642;28;20057;-65
2022/04/22 05:40:25;;;;;;;19.80;13.27;;;;;;;5.32;100.00;95113.69;4988489;28;20113;-65
2022/04/22 05:42:52;;;;;;;24.10;15.32;;;;;;;5.40;100.00;95119.97;4993377;28;20040;-66
2022/04/22 05:45:19;;;;;;;22.85;13.82;;;;;;;5.54;100.00;95117.41;4996975;28;20067;-64
2022/04/22 05:47:44;;;;;;;22.02;14.65;;;;;;;6.08;98.12;95117.94;4995275;28;20117;-64
2022/04/22 05:50:12;;;;;;;25.30;15.80;;;;;;;6.59;93.99;95117.16;4997602;28;20125;-66
2022/04/22 05:52:39;;;;;;;18.75;12.93;;;;;;;7.93;86.12;95112.97;4996576;28;20045;-65
2022/04/22 05:55:07;;;;;;;17.17;11.45;;;;;;;7.40;86.88;95112.47;4989272;28;20065;-68
2022/04/22 05:57:34;;;;;;;18.83;12.45;;;;;;;7.79;85.25;95121.88;4978701;28;20034;-66
2022/04/22 06:00:04;;;;;;;15.95;11.32;;;;;;;7.96;82.86;95123.88;4996231;28;20073;-65
2022/04/22 06:02:30;;;;;;;18.92;11.38;;;;;;;7.44;86.05;95117.94;4996543;28;20034;-66
2022/04/22 06:04:55;;;;;;;19.38;12.20;;;;;;;6.95;89.33;95120.06;4996264;28;20049;-66
2022/04/22 06:07:21;;;;;;;17.90;11.27;;;;;;;7.80;86.29;95124.22;4992131;28;20063;-66
2022/04/22 06:12:14;;;;;;;18.17;11.98;;;;;;;8.17;83.62;95123.09;4953989;29;20043;-66
2022/04/22 06:14:40;;;;;;;18.90;12.65;;;;;;;7.55;85.14;95118.72;4967044;28;20111;-66
2022/04/22 06:17:06;;;;;;;17.42;11.00;;;;;;;7.08;85.93;95109.63;4975710;28;20493;-67
2022/04/22 06:19:31;;;;;;;21.85;14.75;;;;;;;6.83;90.63;95113.00;4975638;28;20038;-68
2022/04/22 06:21:57;;;;;;;19.48;12.45;;;;;;;8.30;85.22;95112.59;4942400;28;20493;-66
2022/04/22 06:24:22;;;;;;;19.70;12.70;;;;;;;8.56;79.93;95116.88;4951559;29;20052;-67
2022/04/22 06:26:48;;;;;;;18.55;11.65;;;;;;;8.22;83.12;95116.47;4965777;28;20042;-67
2022/04/22 06:29:14;;;;;;;18.38;11.88;;;;;;;8.47;79.97;95110.25;4957633;28;20034;-67
2022/04/22 06:31:40;;;;;;;17.98;11.82;;;;;;;9.05;77.36;95121.84;4972558;28;20480;-66
2022/04/22 06:34:05;;;;;;;18.92;13.10;;;;;;;9.37;76.26;95121.72;4966810;28;20031;-70
2022/04/22 06:36:32;;;;;;;17.90;11.60;;;;;;;9.02;76.60;95117.16;4976007;28;20045;-67
2022/04/22 06:38:58;;;;;;;18.00;11.90;;;;;;;9.28;76.42;95116.69;4955732;28;20039;-70
2022/04/22 06:47:13;;;;;;;18.10;12.63;;;;;;;8.68;79.50;95121.16;4857731;29;20041;-70
2022/04/22 06:49:40;;;;;;;18.63;11.93;;;;;;;9.28;76.41;95105.75;4925086;28;20436;-68
2022/04/22 06:52:06;;;;;;;19.35;12.20;;;;;;;8.68;76.97;95103.97;4948911;28;20022;-68
2022/04/22 06:54:32;;;;;;;17.63;12.80;;;;;;;8.68;79.49;95115.69;4956998;28;20403;-69
2022/04/22 06:57:00;;;;;;;16.90;11.98;;;;;;;8.67;78.94;95107.91;4956198;28;20049;-69
2022/04/22 06:59:26;;;;;;;21.52;14.43;;;;;;;8.66;78.24;95112.59;4944439;28;20118;-67
2022/04/22 07:01:52;;;;;;;17.35;12.00;;;;;;;9.09;77.30;95114.41;4955728;28;20119;-68
2022/04/22 07:04:17;;;;;;;17.40;11.73;;;;;;;9.07;76.95;95112.06;4962161;29;20091;-67
2022/04/22 07:06:43;;;;;;;16.35;11.57;;;;;;;8.52;78.67;95107.16;4963303;29;20039;-67
2022/04/22 07:09:12;;;;;;;19.85;12.85;;;;;;;8.63;77.73;95101.66;4957459;29;20118;-68
2022/04/22 07:11:40;;;;;;;16.77;12.30;;;;;;;9.32;76.80;95103.00;4963290;28;20039;-66
2022/04/22 07:14:06;;;;;;;17.58;11.10;;;;;;;10.98;70.73;95097.06;4966378;28;20076;-66
2022/04/22 07:16:32;;;;;;;18.23;11.38;;;;;;;10.49;70.58;95091.69;4962140;28;20444;-67
2022/04/22 07:18:59;;;;;;;17.63;10.90;;;;;;;12.43;62.91;95097.47;4937676;29;20171;-66
2022/04/22 07:21:26;;;;;;;21.05;11.93;;;;;;;10.25;70.76;95098.91;4954950;28;20070;-69
2022/04/22 07:23:53;;;;;;;15.95;10.85;;;;;;;10.27;70.17;95100.06;4954887;29;20169;-68
2022/04/22 07:26:20;;;;;;;16.73;11.63;;;;;;;9.89;71.38;95105.41;4937304;29;20031;-66
2022/04/22 07:28:47;;;;;;;14.68;10.90;;;;;;;9.51;73.85;95108.00;4956689;28;20114;-66
2022/04/22 07:31:22;;;;;;;18.02;12.38;;;;;;;10.44;69.36;95105.81;4964718;28;20027;-66
2022/04/22 07:33:49;;;;;;;19.77;12.57;;;;;;;10.04;70.66;95089.69;4965443;28;20061;-70
2022/04/22 07:36:15;;;;;;;17.25;12.40;;;;;;;9.11;75.04;95092.94;4943478;28;20034;-67
2022/04/22 07:38:40;;;;;;;21.05;13.32;;;;;;;10.02;73.86;95097.50;4974187;28;20034;-67
2022/04/22 07:41:07;;;;;;;23.90;13.98;;;;;;;10.82;68.78;95095.69;4943093;28;20030;-68
2022/04/22 07:49:04;;;;;;;16.52;11.80;;;;;;;11.07;67.15;95100.91;4949725;28;20039;-72
2022/04/22 07:51:30;;;;;;;19.08;11.95;;;;;;;11.04;68.03;95093.47;4935736;28;20030;-68
2022/04/22 07:53:55;;;;;;;17.38;12.43;;;;;;;11.63;64.29;95088.84;4961959;28;20046;-68
2022/04/22 07:56:21;;;;;;;15.27;11.52;;;;;;;12.22;64.08;95093.09;4943645;28;20090;-69
2022/04/22 07:58:46;;;;;;;16.83;11.00;;;;;;;13.36;59.12;95097.75;4963370;28;20071;-69
2022/04/22 08:01:12;;;;;;;18.30;11.20;;;;;;;13.30;59.20;95097.44;4950766;28;20043;-68
2022/04/22 08:03:37;;;;;;;16.23;11.40;;;;;;;13.71;58.08;95090.75;4953341;28;20532;-69
2022/04/22 08:06:04;;;;;;;18.35;12.98;;;;;;;13.30;59.19;95096.69;4936207;28;20102;-70
2022/04/22 08:08:30;;;;;;;16.27;11.43;;;;;;;14.34;55.30;95094.44;4949561;28;20042;-69
2022/04/22 08:10:56;;;;;;;16.45;11.18;;;;;;;15.70;51.16;95092.84;4941623;28;20373;-68
2022/04/22 08:13:24;;;;;;;16.85;12.65;;;;;;;13.65;56.54;95092.47;4939161;28;20051;-67
2022/04/22 08:15:49;;;;;;;16.88;12.60;;;;;;;11.47;62.19;95089.47;4954888;28;20034;-66
2022/04/22 08:18:14;;;;;;;17.48;11.88;;;;;;;11.21;65.42;95085.47;4956484;28;20064;-68
2022/04/22 08:20:40;;;;;;;15.85;11.05;;;;;;;11.86;64.10;95097.13;4956052;28;20051;-68
2022/04/22 08:23:05;;;;;;;20.77;13.35;;;;;;;11.84;63.13;95090.50;4950140;28;20038;-68
2022/04/22 08:25:31;;;;;;;17.10;11.93;;;;;;;10.95;66.77;95086.94;4962056;28;20047;-68
2022/04/22 08:27:56;;;;;;;18.75;13.52;;;;;;;10.78;68.98;95078.50;4951775;28;20036;-66
2022/04/22 08:30:22;;;;;;;21.00;13.10;;;;;;;11.08;67.50;95086.00;4938509;28;20570;-66
2022/04/22 08:32:48;;;;;;;21.10;14.25;;;;;;;11.31;66.38;95079.09;4952341;28;20050;-66
2022/04/22 08:35:13;;;;;;;19.17;12.73;;;;;;;12.29;64.81;95079.25;4963015;28;20038;-70
2022/04/22 08:37:42;;;;;;;20.58;13.85;;;;;;;13.36;62.21;95081.25;4957145;28;20050;-67
2022/04/22 08:40:09;;;;;;;17.55;13.00;;;;;;;12.63;60.66;95075.56;4951165;28;20522;-70
2022/04/22 08:42:39;;;;;;;18.83;12.80;;;;;;;13.51;57.86;95071.53;4965752;28;20132;-67
2022/04/22 08:45:09;;;;;;;19.20;13.05;;;;;;;14.01;59.32;95072.41;4952994;28;20047;-70
2022/04/22 08:50:20;;;;;;;21.63;13.93;;;;;;;17.75;47.29;95067.47;4935122;28;20106;-68
2022/04/22 08:52:57;;;;;;;21.02;13.43;;;;;;;14.62;55.23;95068.22;4926330;29;20175;-69
2022/04/22 08:55:25;;;;;;;18.77;12.88;;;;;;;16.27;49.64;95065.47;4937024;28;20101;-67
2022/04/22 08:57:52;;;;;;;19.33;13.63;;;;;;;13.72;55.79;95069.50;4943864;28;20047;-66
2022/04/22 09:00:22;;;;;;;20.02;12.30;;;;;;;14.82;52.83;95065.31;4942957;28;20416;-67
2022/04/22 09:02:47;;;;;;;19.95;13.73;;;;;;;13.13;58.94;95066.38;4943873;28;20069;-67
2022/04/22 09:05:13;;;;;;;23.48;13.20;;;;;;;13.73;58.03;95068.31;4938473;28;20480;-66
2022/04/22 09:07:42;;;;;;;18.65;13.98;;;;;;;13.30;58.75;95072.69;4943306;28;20047;-66
2022/04/22 09:10:08;;;;;;;24.52;14.45;;;;;;;13.46;57.43;95066.53;4937523;28;20050;-66
2022/04/22 09:12:34;;;;;;;19.75;14.18;;;;;;;12.60;60.40;95076.38;4925688;29;20511;-66
2022/04/22 09:15:00;;;;;;;22.77;14.93;;;;;;;12.93;60.78;95074.63;4944156;28;20039;-65
2022/04/22 09:17:32;;;;;;;37.92;14.90;;;;;;;14.47;56.59;95075.25;4936825;28;20150;-66
2022/04/22 09:19:58;;;;;;;16.83;10.57;;;;;;;14.85;54.78;95074.69;4943165;28;20039;-66
2022/04/22 09:22:26;;;;;;;15.43;11.15;;;;;;;15.73;51.25;95069.09;4940853;28;20083;-66
2022/04/22 09:24:56;;;;;;;14.88;10.70;;;;;;;16.03;50.42;95065.81;4947069;28;20074;-66
2022/04/22 09:27:32;;;;;;;17.00;11.15;;;;;;;14.41;54.02;95074.22;4939555;28;20821;-66
2022/04/22 09:29:57;;;;;;;17.60;10.70;;;;;;;14.87;53.14;95062.03;4946205;28;20078;-66
2022/04/22 09:32:31;;;;;;;16.00;11.25;;;;;;;15.43;51.37;95071.13;4941266;28;20078;-66
2022/04/22 09:35:07;;;;;;;18.30;11.35;;;;;;;15.47;51.65;95069.06;4945808;29;20043;-67
2022/04/22 09:43:00;;;;;;;17.10;11.55;;;;;;;16.45;48.50;95062.13;4946476;28;20094;-66
2022/04/22 09:45:37;;;;;;;18.42;12.27;;;;;;;17.73;45.04;95077.44;4940940;28;20043;-66
2022/04/22 09:48:12;;;;;;;18.25;11.07;;;;;;;17.63;45.74;95068.31;4927135;28;20039;-66
2022/04/22 09:50:40;;;;;;;15.07;10.80;;;;;;;16.91;46.58;95070.88;4937142;28;20031;-66
2022/04/22 09:53:06;;;;;;;16.38;11.63;;;;;;;17.67;45.23;95054.34;4941226;28;20408;-66
2022/04/22 09:55:35;;;;;;;18.58;10.85;;;;;;;17.35;46.11;95057.06;4945249;28;20521;-67
2022/04/22 09:58:01;;;;;;;17.73;10.63;;;;;;;18.23;43.31;95066.47;4926351;29;20047;-66
2022/04/22 10:00:30;;;;;;;20.35;11.55;;;;;;;17.89;44.10;95071.69;4921560;29;20111;-66
2022/04/22 10:02:56;;;;;;;16.88;12.20;;;;;;;17.00;46.53;95070.97;4930651;29;20122;-67
2022/04/22 10:05:23;;;;;;;14.57;10.20;;;;;;;18.07;44.65;95068.25;4905401;29;20877;-67
2022/04/22 10:07:56;;;;;;;16.90;11.60;;;;;;;16.55;46.81;95060.25;4948828;29;20043;-67
2022/04/22 10:10:28;;;;;;;17.10;11.40;;;;;;;16.75;46.61;95057.97;4931174;29;20576;-66
2022/04/22 10:12:59;;;;;;;17.02;12.73;;;;;;;15.47;50.64;95066.31;4928942;29;20047;-66
2022/04/22 10:15:29;;;;;;;17.77;12.80;;;;;;;14.56;52.51;95069.13;4921030;29;20159;-66
2022/04/22 10:17:55;;;;;;;17.58;12.65;;;;;;;13.60;54.95;95070.19;4925746;29;20039;-66
2022/04/22 10:20:21;;;;;;;22.52;13.18;;;;;;;13.67;54.86;95072.78;4921139;29;20412;-66
2022/04/22 10:22:50;;;;;;;18.63;12.43;;;;;;;13.57;56.11;95067.06;4927169;29;20035;-66
2022/04/22 10:25:16;;;;;;;18.40;12.60;;;;;;;13.56;56.03;95059.25;4944058;28;20067;-67
2022/04/22 10:27:42;;;;;;;20.35;13.27;;;;;;;13.96;55.03;95059.16;4949465;28;20518;-66
2022/04/22 10:30:10;;;;;;;19.95;13.55;;;;;;;14.15;55.04;95061.06;4943251;28;20279;-66
2022/04/22 10:32:39;;;;;;;16.55;12.50;;;;;;;14.38;54.27;95061.31;4944760;28;20039;-66
2022/04/22 10:35:05;;;;;;;18.40;12.40;;;;;;;15.23;51.82;95065.78;4940930;28;20400;-66
2022/04/22 10:37:33;;;;;;;20.83;12.98;;;;;;;15.61;50.89;95059.56;4942708;29;20130;-66
2022/04/22 10:40:00;;;;;;;20.27;13.02;;;;;;;16.02;49.79;95055.22;4945143;28;20039;-66
2022/04/22 10:42:33;;;;;;;18.20;12.90;;;;;;;16.13;49.21;95057.63;4940523;28;20043;-66
2022/04/22 10:47:48;;;;;;;16.60;11.80;;;;;;;15.58;51.76;95066.00;4944488;28;20119;-66
2022/04/22 10:50:27;;;;;;;18.98;13.82;;;;;;;15.07;52.01;95056.38;4938940;28;20039;-67
2022/04/22 10:53:23;;;;;;;19.30;13.10;;;;;;;15.26;51.75;95062.94;4935914;29;20039;-67
2022/04/22 10:55:49;;;;;;;19.63;13.50;;;;;;;14.49;54.61;95054.31;4924086;29;20518;-65
2022/04/22 10:58:21;;;;;;;19.88;13.45;;;;;;;14.86;53.46;95056.97;4926303;28;20049;-66
2022/04/22 11:01:04;;;;;;;24.30;14.82;;;;;;;14.27;55.08;95065.09;4926442;29;20059;-66
2022/04/22 11:03:31;;;;;;;22.38;14.80;;;;;;;13.52;58.12;95053.03;4940433;29;20043;-66
2022/04/22 11:06:17;;;;;;;26.48;14.85;;;;;;;13.10;60.99;95052.72;4939932;29;20801;-66
2022/04/22 11:08:58;;;;;;;22.75;16.02;;;;;;;13.33;61.00;95060.91;4925557;29;20055;-67
2022/04/22 11:11:24;;;;;;;25.33;15.57;;;;;;;13.64;60.47;95057.13;4903501;29;20859;-66
2022/04/22 11:13:51;;;;;;;25.88;15.32;;;;;;;13.76;59.00;95048.97;4925171;29;20051;-65
2022/04/22 11:16:19;;;;;;;24.10;15.77;;;;;;;13.58;60.36;95048.59;4919963;29;20051;-66
2022/04/22 11:19:13;;;;;;;20.92;14.52;;;;;;;13.73;59.81;95052.56;4925271;29;20039;-67
2022/04/22 11:21:40;;;;;;;25.33;15.00;;;;;;;14.26;57.50;95055.28;4925534;29;20146;-67
2022/04/22 11:24:14;;;;;;;26.20;15.95;;;;;;;14.44;56.14;95049.34;4921010;29;20050;-65
2022/04/22 11:26:39;;;;;;;22.27;14.60;;;;;;;14.64;56.46;95052.00;4925734;29;20661;-66
2022/04/22 11:29:10;;;;;;;21.05;14.88;;;;;;;15.09;55.32;95047.69;4920638;29;20082;-66
2022/04/22 11:31:36;;;;;;;22.02;16.10;;;;;;;15.01;55.08;95055.34;4926568;28;20091;-65
2022/04/22 11:34:11;;;;;;;23.25;15.05;;;;;;;14.71;55.43;95057.34;4952227;28;20110;-66
2022/04/22 11:36:48;;;;;;;22.52;15.02;;;;;;;14.80;55.97;95053.16;4942994;29;20047;-66
2022/04/22 11:39:18;;;;;;;26.10;15.32;;;;;;;15.12;55.18;95041.25;4939190;28;20531;-66
2022/04/22 11:41:57;;;;;;;24.25;15.70;;;;;;;15.07;55.86;95045.34;4951808;28;20631;-66
2022/04/22 11:44:26;;;;;;;22.27;15.70;;;;;;;15.07;55.34;95042.59;4940476;28;20134;-66
2022/04/22 11:46:52;;;;;;;23.15;15.80;;;;;;;15.11;56.09;95039.75;4929378;28;20057;-65
2022/04/22 11:49:21;;;;;;;23.17;15.88;;;;;;;15.44;53.99;95045.88;4952631;28;20038;-66
2022/04/22 11:51:54;;;;;;;28.30;16.25;;;;;;;15.41;53.69;95038.50;4934862;28;20063;-65
2022/04/22 11:54:24;;;;;;;20.58;14.98;;;;;;;15.46;54.40;95035.16;4926918;28;20051;-66
2022/04/22 11:56:50;;;;;;;21.13;15.23;;;;;;;15.48;54.13;95038.28;4934363;28;20058;-66
2022/04/22 11:59:22;;;;;;;21.70;16.17;;;;;;;15.35;53.79;95042.22;4938032;28;20051;-65
2022/04/22 12:10:01;;;;;;;23.02;15.98;;;;;;;14.71;57.37;95031.75;4944212;28;20063;-66
2022/04/22 12:12:31;;;;;;;23.45;16.65;;;;;;;14.28;58.03;95043.84;4937717;28;20566;-67
2022/04/22 12:15:00;;;;;;;28.90;17.75;;;;;;;14.38;56.80;95036.50;4942399;29;20134;-65
2022/04/22 12:17:26;;;;;;;22.87;16.53;;;;;;;14.46;57.37;95044.16;4941408;28;20054;-66
2022/04/22 12:19:51;;;;;;;24.80;16.95;;;;;;;14.67;56.95;95040.09;4951492;28;20038;-66